createdAt,value
2019-04-28T00:01:22.306Z,16.17
2019-04-28T00:03:52.188Z,15.50
2019-04-28T00:06:22.156Z,15.87
2019-04-28T00:08:52.161Z,17.07
2019-04-28T00:11:22.531Z,17.20
2019-04-28T00:13:53.590Z,16.37
2019-04-28T00:16:24.163Z,15.43
2019-04-28T00:18:54.057Z,16.67
2019-04-28T00:22:01.088Z,16.33
2019-04-28T00:24:41.635Z,15.83
2019-04-28T00:27:14.049Z,17.73
2019-04-28T00:29:46.137Z,16.37
2019-04-28T00:32:15.588Z,15.60
2019-04-28T00:34:45.565Z,17.07
2019-04-28T00:37:25.285Z,16.73
2019-04-28T00:39:55.198Z,15.57
2019-04-28T00:42:25.258Z,15.80
2019-04-28T00:44:55.178Z,15.17
2019-04-28T00:47:25.322Z,14.97
2019-04-28T00:49:55.354Z,15.53
2019-04-28T00:52:25.222Z,15.30
2019-04-28T00:54:55.188Z,15.50
2019-04-28T00:57:25.121Z,15.23
2019-04-28T00:59:58.408Z,15.30
2019-04-28T01:02:41.304Z,15.33
2019-04-28T01:05:13.434Z,15.53
2019-04-28T01:07:43.322Z,15.50
2019-04-28T01:10:14.196Z,15.53
2019-04-28T01:12:46.635Z,15.57
2019-04-28T01:15:33.680Z,15.90
2019-04-28T01:18:12.335Z,14.80
2019-04-28T01:20:42.215Z,15.03
2019-04-28T01:23:12.214Z,15.17
2019-04-28T01:25:42.130Z,15.03
2019-04-28T01:28:12.190Z,14.97
2019-04-28T01:31:16.336Z,14.13
2019-04-28T01:34:05.110Z,13.30
2019-04-28T01:36:36.620Z,13.83
2019-04-28T01:39:07.615Z,14.63
2019-04-28T01:41:39.571Z,13.63
2019-04-28T01:44:10.204Z,13.23
2019-04-28T01:46:40.276Z,12.87
2019-04-28T01:49:10.179Z,12.23
2019-04-28T01:51:41.622Z,11.90
2019-04-28T01:54:14.429Z,12.43
2019-04-28T01:56:44.348Z,11.67
2019-04-28T01:59:14.360Z,12.80
2019-04-28T02:01:44.275Z,12.93
2019-04-28T02:04:14.281Z,13.20
2019-04-28T02:06:44.178Z,12.93
2019-04-28T02:09:16.782Z,12.77
2019-04-28T02:11:46.656Z,12.00
2019-04-28T02:14:16.744Z,12.87
2019-04-28T02:16:46.651Z,13.07
2019-04-28T02:19:16.661Z,14.27
2019-04-28T02:22:20.446Z,13.17
2019-04-28T02:24:50.565Z,12.93
2019-04-28T02:27:21.024Z,13.20
2019-04-28T02:29:51.207Z,11.73
2019-04-28T02:32:24.313Z,12.53
2019-04-28T02:34:52.628Z,12.17
2019-04-28T02:37:22.543Z,12.00
2019-04-28T02:39:52.434Z,11.90
2019-04-28T02:42:22.342Z,12.30
2019-04-28T02:44:52.513Z,11.50
2019-04-28T02:47:22.464Z,12.00
2019-04-28T02:50:00.601Z,11.03
2019-04-28T02:52:46.836Z,11.57
2019-04-28T02:55:16.969Z,10.13
2019-04-28T02:57:46.839Z,10.00
2019-04-28T03:00:17.018Z,9.20
2019-04-28T03:02:47.036Z,8.47
2019-04-28T03:05:17.980Z,9.17
2019-04-28T03:07:47.851Z,8.93
2019-04-28T03:10:17.775Z,8.90
2019-04-28T03:12:47.653Z,8.87
2019-04-28T03:15:20.204Z,9.43
2019-04-28T03:17:52.468Z,8.83
2019-04-28T03:20:21.342Z,8.90
2019-04-28T03:22:52.411Z,8.13
2019-04-28T03:25:41.229Z,8.67
2019-04-28T03:28:30.806Z,8.93
2019-04-28T03:31:36.615Z,8.33
2019-04-28T03:33:47.236Z,9.80
2019-04-28T03:36:15.369Z,9.70
2019-04-28T03:38:43.642Z,9.37
2019-04-28T03:41:13.502Z,9.47
2019-04-28T03:43:43.376Z,10.17
2019-04-28T03:46:21.391Z,9.67
2019-04-28T03:48:51.420Z,10.13
2019-04-28T03:51:21.409Z,9.53
2019-04-28T03:53:51.340Z,10.63
2019-04-28T03:56:22.982Z,9.63
2019-04-28T03:58:52.948Z,9.90
2019-04-28T04:01:22.977Z,9.70
2019-04-28T04:03:52.860Z,10.00
2019-04-28T04:06:22.884Z,10.30
2019-04-28T04:08:52.787Z,10.27
2019-04-28T04:11:35.338Z,10.50
2019-04-28T04:14:33.088Z,11.27
2019-04-28T04:17:11.360Z,10.80
2019-04-28T04:19:41.406Z,11.10
2019-04-28T04:22:11.339Z,10.50
2019-04-28T04:24:41.228Z,10.00
2019-04-28T04:27:11.088Z,9.73
2019-04-28T04:29:43.596Z,10.83
2019-04-28T04:32:22.723Z,10.00
2019-04-28T04:34:44.138Z,10.17
2019-04-28T04:37:14.073Z,9.40
2019-04-28T04:39:43.961Z,9.60
2019-04-28T04:42:13.835Z,9.67
2019-04-28T04:44:43.783Z,9.10
2019-04-28T04:47:13.644Z,9.53
2019-04-28T04:49:43.560Z,8.83
2019-04-28T04:52:13.530Z,9.07
2019-04-28T04:54:43.416Z,8.30
2019-04-28T04:57:13.319Z,9.13
2019-04-28T04:59:43.218Z,9.00
2019-04-28T05:02:34.973Z,8.90
2019-04-28T05:05:26.740Z,9.00
2019-04-28T05:07:56.614Z,8.10
2019-04-28T05:10:26.555Z,8.13
2019-04-28T05:12:56.453Z,8.47
2019-04-28T05:15:26.350Z,8.97
2019-04-28T05:17:56.270Z,8.67
2019-04-28T05:20:26.164Z,7.73
2019-04-28T05:23:05.603Z,7.90
2019-04-28T05:25:41.184Z,8.53
2019-04-28T05:28:11.116Z,8.03
2019-04-28T05:30:42.968Z,7.90
2019-04-28T05:33:30.400Z,7.97
2019-04-28T05:36:02.614Z,8.23
2019-04-28T05:38:30.644Z,8.33
2019-04-28T05:41:02.660Z,8.13
2019-04-28T05:43:32.085Z,7.83
2019-04-28T05:46:01.947Z,6.80
2019-04-28T05:48:43.480Z,6.80
2019-04-28T05:51:16.500Z,7.37
2019-04-28T05:53:54.775Z,6.60
2019-04-28T05:56:39.885Z,6.77
2019-04-28T05:59:30.011Z,6.83
2019-04-28T06:02:08.096Z,6.70
2019-04-28T06:04:37.968Z,6.63
2019-04-28T06:07:23.845Z,6.97
2019-04-28T06:09:55.240Z,6.63
2019-04-28T06:12:25.092Z,6.13
2019-04-28T06:14:55.023Z,6.10
2019-04-28T06:17:24.904Z,6.40
2019-04-28T06:19:54.800Z,6.77
2019-04-28T06:22:24.706Z,6.20
2019-04-28T06:24:54.629Z,6.47
2019-04-28T06:27:24.483Z,7.60
2019-04-28T06:29:54.882Z,7.00
2019-04-28T06:32:24.864Z,7.40
2019-04-28T06:34:54.803Z,6.10
2019-04-28T06:37:24.753Z,5.07
2019-04-28T06:39:54.620Z,5.90
2019-04-28T06:42:24.515Z,6.23
2019-04-28T06:44:54.427Z,5.40
2019-04-28T06:47:24.333Z,5.90
2019-04-28T06:49:54.269Z,4.90
2019-04-28T06:52:24.128Z,5.40
2019-04-28T06:54:54.004Z,5.37
2019-04-28T06:57:23.926Z,5.03
2019-04-28T06:59:54.188Z,5.00
2019-04-28T07:02:24.089Z,5.10
2019-04-28T07:05:01.783Z,4.73
2019-04-28T07:07:25.475Z,5.50
2019-04-28T07:09:55.391Z,5.03
2019-04-28T07:12:25.104Z,4.90
2019-04-28T07:14:55.273Z,4.93
2019-04-28T07:17:24.994Z,4.83
2019-04-28T07:20:13.604Z,4.90
2019-04-28T07:22:43.379Z,5.00
2019-04-28T07:25:13.263Z,5.23
2019-04-28T07:27:42.958Z,5.30
2019-04-28T07:30:14.496Z,5.13
2019-04-28T07:32:44.174Z,5.70
2019-04-28T07:35:13.917Z,5.53
2019-04-28T07:37:44.352Z,5.80
2019-04-28T07:40:14.252Z,5.73
2019-04-28T07:42:44.314Z,5.60
2019-04-28T07:45:14.233Z,5.70
2019-04-28T07:47:43.906Z,5.87
2019-04-28T07:50:13.717Z,5.77
2019-04-28T07:52:51.371Z,5.27
2019-04-28T07:55:21.219Z,5.80
2019-04-28T07:57:50.900Z,5.30
2019-04-28T08:00:27.075Z,5.63
2019-04-28T08:02:56.753Z,5.60
2019-04-28T08:05:26.462Z,5.70
2019-04-28T08:07:56.246Z,5.43
2019-04-28T08:10:25.918Z,5.60
2019-04-28T08:12:55.664Z,5.53
2019-04-28T08:15:25.339Z,5.03
2019-04-28T08:17:55.099Z,5.50
2019-04-28T08:20:24.808Z,5.47
2019-04-28T08:22:54.516Z,5.53
2019-04-28T08:25:24.260Z,5.37
2019-04-28T08:27:53.901Z,5.50
2019-04-28T08:30:23.552Z,5.37
2019-04-28T08:33:21.318Z,4.97
2019-04-28T08:35:51.016Z,5.77
2019-04-28T08:38:20.711Z,5.07
2019-04-28T08:40:50.474Z,5.43
2019-04-28T08:43:20.212Z,5.80
2019-04-28T08:45:49.903Z,6.10
2019-04-28T08:48:19.769Z,6.30
2019-04-28T08:50:51.934Z,5.90
2019-04-28T08:53:21.759Z,6.30
2019-04-28T08:55:51.487Z,5.80
2019-04-28T08:58:22.017Z,6.07
2019-04-28T09:00:51.677Z,6.27
2019-04-28T09:03:21.389Z,6.67
2019-04-28T09:05:51.160Z,6.80
2019-04-28T09:08:20.830Z,6.80
2019-04-28T09:10:50.514Z,7.20
2019-04-28T09:13:20.243Z,6.80
2019-04-28T09:15:50.042Z,6.50
2019-04-28T09:18:19.687Z,6.53
2019-04-28T09:20:49.523Z,6.03
2019-04-28T09:23:19.758Z,6.07
2019-04-28T09:25:49.595Z,6.77
2019-04-28T09:28:19.270Z,6.47
2019-04-28T09:30:49.771Z,6.80
2019-04-28T09:33:19.443Z,6.97
2019-04-28T09:35:49.239Z,7.80
2019-04-28T09:38:18.902Z,7.70
2019-04-28T09:40:48.564Z,7.33
2019-04-28T09:43:25.517Z,7.23
2019-04-28T09:46:18.575Z,7.33
2019-04-28T09:48:48.283Z,7.03
2019-04-28T09:51:19.158Z,7.23
2019-04-28T09:53:48.837Z,7.53
2019-04-28T09:56:18.565Z,7.30
2019-04-28T09:58:48.231Z,7.50
2019-04-28T10:01:17.897Z,6.93
2019-04-28T10:03:47.593Z,7.33
2019-04-28T10:06:17.283Z,7.40
2019-04-28T10:08:46.963Z,7.53
2019-04-28T10:11:29.686Z,7.80
2019-04-28T10:13:48.071Z,8.83
2019-04-28T10:16:17.910Z,8.57
2019-04-28T10:18:47.537Z,6.93
2019-04-28T10:21:17.258Z,7.70
2019-04-28T10:23:46.957Z,8.03
2019-04-28T10:26:16.732Z,7.50
2019-04-28T10:28:46.437Z,7.80
2019-04-28T10:31:16.175Z,7.40
2019-04-28T10:33:48.723Z,7.47
2019-04-28T10:36:18.659Z,8.33
2019-04-28T10:38:49.937Z,7.17
2019-04-28T10:41:33.420Z,7.50
2019-04-28T10:44:03.193Z,7.07
2019-04-28T10:46:32.904Z,7.57
2019-04-28T10:49:02.612Z,6.70
2019-04-28T10:51:32.412Z,6.17
2019-04-28T10:54:02.140Z,7.10
2019-04-28T10:56:31.838Z,6.67
2019-04-28T10:59:01.700Z,6.43
2019-04-28T11:01:31.404Z,6.77
2019-04-28T11:04:04.153Z,7.03
2019-04-28T11:06:33.823Z,6.30
2019-04-28T11:09:30.733Z,6.93
2019-04-28T11:12:02.079Z,6.17
2019-04-28T11:14:31.807Z,7.20
2019-04-28T11:17:04.378Z,7.40
2019-04-28T11:19:34.092Z,6.43
2019-04-28T11:22:03.925Z,7.30
2019-04-28T11:24:33.630Z,6.40
2019-04-28T11:27:03.319Z,6.57
2019-04-28T11:29:32.996Z,7.03
2019-04-28T11:32:06.887Z,7.70
2019-04-28T11:35:00.974Z,7.20
2019-04-28T11:37:31.371Z,8.00
2019-04-28T11:40:02.290Z,8.10
2019-04-28T11:42:31.997Z,7.77
2019-04-28T11:45:01.860Z,8.07
2019-04-28T11:47:31.589Z,7.50
2019-04-28T11:50:05.245Z,7.57
2019-04-28T11:52:35.069Z,8.77
2019-04-28T11:55:07.139Z,9.03
2019-04-28T11:57:36.839Z,9.20
2019-04-28T12:00:16.820Z,8.80
2019-04-28T12:02:49.295Z,8.30
2019-04-28T12:05:28.341Z,7.97
2019-04-28T12:07:52.290Z,7.73
2019-04-28T12:10:26.812Z,8.10
2019-04-28T12:13:15.404Z,7.70
2019-04-28T12:16:20.107Z,7.93
2019-04-28T12:19:06.574Z,6.77
2019-04-28T12:21:36.279Z,7.20
2019-04-28T12:24:07.779Z,7.67
2019-04-28T12:26:37.451Z,6.63
2019-04-28T12:29:08.827Z,7.30
2019-04-28T12:31:38.540Z,7.07
2019-04-28T12:34:09.150Z,6.57
2019-04-28T12:36:38.925Z,6.37
2019-04-28T12:39:11.468Z,7.63
2019-04-28T12:41:41.241Z,6.67
2019-04-28T12:44:10.948Z,7.30
2019-04-28T12:46:40.602Z,7.30
2019-04-28T12:49:19.776Z,7.70
2019-04-28T12:51:49.453Z,7.23
2019-04-28T12:54:20.763Z,7.40
2019-04-28T12:56:50.535Z,6.30
2019-04-28T12:59:25.331Z,6.80
2019-04-28T13:02:28.975Z,7.07
2019-04-28T13:05:01.571Z,6.63
2019-04-28T13:07:31.224Z,7.17
2019-04-28T13:10:00.932Z,7.40
2019-04-28T13:12:30.655Z,7.83
2019-04-28T13:15:00.314Z,8.07
2019-04-28T13:17:30.002Z,8.10
2019-04-28T13:19:59.698Z,8.40
2019-04-28T13:22:29.376Z,8.93
2019-04-28T13:24:59.125Z,8.70
2019-04-28T13:27:28.805Z,8.37
2019-04-28T13:29:58.497Z,9.27
2019-04-28T13:32:28.191Z,8.80
2019-04-28T13:34:57.972Z,8.37
2019-04-28T13:37:27.716Z,8.23
2019-04-28T13:40:03.921Z,8.13
2019-04-28T13:42:33.563Z,8.63
2019-04-28T13:45:06.782Z,8.93
2019-04-28T13:47:36.966Z,8.97
2019-04-28T13:50:16.757Z,8.80
2019-04-28T13:52:46.459Z,9.20
2019-04-28T13:55:41.218Z,9.27
2019-04-28T13:58:12.741Z,8.90
2019-04-28T14:01:04.224Z,10.40
2019-04-28T14:04:01.739Z,8.93
2019-04-28T14:06:32.583Z,8.97
2019-04-28T14:09:02.267Z,9.50
2019-04-28T14:11:32.000Z,10.10
2019-04-28T14:14:02.330Z,9.77
2019-04-28T14:16:32.047Z,9.00
2019-04-28T14:19:01.781Z,8.97
2019-04-28T14:21:31.429Z,9.67
2019-04-28T14:24:01.125Z,9.40
2019-04-28T14:26:30.858Z,9.30
2019-04-28T14:29:00.576Z,8.47
2019-04-28T14:31:30.322Z,9.20
2019-04-28T14:34:01.100Z,10.00
2019-04-28T14:36:41.529Z,10.30
2019-04-28T14:39:02.280Z,10.93
2019-04-28T14:41:32.051Z,11.17
2019-04-28T14:44:01.728Z,12.57
2019-04-28T14:46:31.469Z,12.00
2019-04-28T14:49:01.192Z,12.53
2019-04-28T14:51:30.893Z,11.60
2019-04-28T14:54:00.580Z,13.07
2019-04-28T14:56:30.346Z,12.50
2019-04-28T14:59:00.102Z,13.03
2019-04-28T15:01:57.861Z,14.00
2019-04-28T15:04:45.733Z,13.13
2019-04-28T15:07:17.279Z,13.80
2019-04-28T15:10:08.670Z,13.17
2019-04-28T15:12:38.374Z,13.83
2019-04-28T15:15:09.062Z,14.40
2019-04-28T15:17:38.723Z,13.17
2019-04-28T15:20:08.555Z,14.23
2019-04-28T15:22:41.328Z,14.13
2019-04-28T15:25:11.263Z,14.60
2019-04-28T15:27:41.463Z,14.40
2019-04-28T15:30:11.293Z,14.00
2019-04-28T15:32:41.028Z,14.03
2019-04-28T15:35:12.348Z,14.33
2019-04-28T15:37:42.002Z,14.13
2019-04-28T15:40:12.119Z,13.63
2019-04-28T15:42:41.806Z,13.57
2019-04-28T15:45:11.505Z,14.20
2019-04-28T15:47:41.380Z,13.83
2019-04-28T15:50:11.379Z,14.00
2019-04-28T15:52:43.492Z,13.77
2019-04-28T15:55:15.411Z,12.50
2019-04-28T15:57:45.092Z,11.87
2019-04-28T16:00:15.513Z,11.77
2019-04-28T16:02:45.280Z,12.33
2019-04-28T16:05:15.191Z,11.97
2019-04-28T16:07:44.883Z,10.43
2019-04-28T16:10:14.785Z,10.27
2019-04-28T16:12:44.494Z,10.37
2019-04-28T16:15:14.309Z,12.67
2019-04-28T16:17:44.174Z,11.37
2019-04-28T16:20:14.054Z,10.63
2019-04-28T16:22:43.748Z,11.00
2019-04-28T16:25:13.638Z,11.50
2019-04-28T16:27:43.371Z,11.37
2019-04-28T16:30:13.336Z,12.30
2019-04-28T16:32:43.040Z,11.60
2019-04-28T16:35:15.879Z,10.40
2019-04-28T16:37:45.589Z,11.63
2019-04-28T16:40:15.378Z,14.57
2019-04-28T16:42:47.948Z,13.13
2019-04-28T16:45:18.699Z,13.50
2019-04-28T16:47:48.513Z,13.73
2019-04-28T16:50:18.355Z,12.20
2019-04-28T16:52:48.286Z,12.47
2019-04-28T16:55:21.841Z,11.83
2019-04-28T16:58:10.405Z,12.17
2019-04-28T17:00:57.532Z,11.97
2019-04-28T17:03:28.949Z,10.93
2019-04-28T17:05:58.721Z,12.07
2019-04-28T17:08:28.459Z,11.60
2019-04-28T17:10:58.196Z,12.53
2019-04-28T17:13:27.970Z,13.53
2019-04-28T17:15:57.644Z,13.00
2019-04-28T17:18:28.017Z,12.87
2019-04-28T17:20:57.702Z,12.03
2019-04-28T17:23:27.476Z,13.03
2019-04-28T17:25:57.289Z,11.67
2019-04-28T17:28:27.001Z,12.50
2019-04-28T17:30:56.760Z,13.33
2019-04-28T17:33:26.665Z,12.87
2019-04-28T17:35:56.362Z,14.77
2019-04-28T17:38:26.102Z,13.97
2019-04-28T17:40:55.812Z,14.33
2019-04-28T17:43:25.610Z,14.47
2019-04-28T17:45:55.318Z,13.53
2019-04-28T17:48:30.176Z,14.00
2019-04-28T17:50:59.847Z,14.73
2019-04-28T17:53:29.518Z,14.50
2019-04-28T17:55:59.218Z,14.00
2019-04-28T17:58:28.931Z,15.17
2019-04-28T18:01:18.291Z,13.70
2019-04-28T18:04:00.764Z,13.57
2019-04-28T18:06:31.138Z,14.27
2019-04-28T18:09:00.816Z,17.07
2019-04-28T18:11:30.482Z,16.47
2019-04-28T18:14:00.197Z,15.83
2019-04-28T18:17:00.994Z,15.97
2019-04-28T18:19:34.555Z,16.00
2019-04-28T18:22:04.219Z,17.17
2019-04-28T18:24:34.502Z,17.93
2019-04-28T18:27:04.361Z,20.70
2019-04-28T18:29:34.484Z,21.30
2019-04-28T18:32:32.000Z,16.27
2019-04-28T18:35:16.917Z,17.93
2019-04-28T18:38:03.461Z,16.20
2019-04-28T18:40:50.730Z,18.37
2019-04-28T18:43:45.256Z,18.77
2019-04-28T18:46:16.957Z,18.67
2019-04-28T18:48:46.670Z,18.90
2019-04-28T18:51:16.387Z,19.17
2019-04-28T18:53:46.190Z,19.23
2019-04-28T18:56:15.926Z,19.10
2019-04-28T18:58:45.721Z,17.87
2019-04-28T19:01:25.078Z,20.00
2019-04-28T19:03:54.815Z,16.23
2019-04-28T19:06:24.600Z,17.87
2019-04-28T19:09:02.185Z,17.60
2019-04-28T19:11:37.659Z,16.53
2019-04-28T19:14:32.205Z,18.40
2019-04-28T19:17:19.510Z,18.63
2019-04-28T19:19:49.269Z,19.37
2019-04-28T19:22:18.980Z,18.80
2019-04-28T19:24:48.694Z,18.47
2019-04-28T19:27:18.496Z,19.60
2019-04-28T19:29:48.230Z,18.50
2019-04-28T19:32:18.044Z,18.97
2019-04-28T19:34:47.741Z,18.97
2019-04-28T19:37:17.449Z,17.87
2019-04-28T19:39:47.174Z,19.83
2019-04-28T19:42:16.863Z,18.60
2019-04-28T19:44:46.587Z,20.23
2019-04-28T19:47:16.345Z,23.90
2019-04-28T19:49:46.011Z,25.43
2019-04-28T19:52:15.744Z,20.10
2019-04-28T19:55:08.829Z,20.63
2019-04-28T19:58:03.456Z,20.47
2019-04-28T20:00:38.247Z,20.73
2019-04-28T20:03:07.995Z,19.97
2019-04-28T20:05:37.670Z,20.07
2019-04-28T20:08:07.382Z,21.30
2019-04-28T20:10:37.161Z,20.17
2019-04-28T20:13:06.823Z,21.27
2019-04-28T20:15:36.466Z,21.00
2019-04-28T20:18:06.252Z,21.27
2019-04-28T20:20:35.981Z,23.10
2019-04-28T20:23:05.726Z,23.63
2019-04-28T20:25:35.453Z,22.17
2019-04-28T20:28:05.186Z,23.47
2019-04-28T20:30:34.893Z,23.17
2019-04-28T20:33:07.470Z,23.03
2019-04-28T20:35:39.034Z,22.70
2019-04-28T20:38:21.025Z,24.10
2019-04-28T20:41:08.467Z,22.13
2019-04-28T20:43:38.225Z,22.00
2019-04-28T20:46:07.908Z,23.40
2019-04-28T20:48:37.596Z,22.30
2019-04-28T20:51:07.361Z,22.70
2019-04-28T20:53:37.055Z,21.87
2019-04-28T20:56:06.719Z,22.37
2019-04-28T20:58:36.464Z,23.07
2019-04-28T21:01:06.133Z,21.87
2019-04-28T21:03:38.503Z,20.97
2019-04-28T21:06:07.247Z,22.13
2019-04-28T21:08:36.960Z,21.27
2019-04-28T21:11:06.749Z,21.87
2019-04-28T21:13:36.437Z,21.73
2019-04-28T21:16:06.322Z,21.30
2019-04-28T21:18:36.083Z,21.07
2019-04-28T21:21:05.754Z,21.17
2019-04-28T21:23:35.489Z,22.27
2019-04-28T21:26:05.300Z,22.17
2019-04-28T21:28:35.019Z,23.33
2019-04-28T21:31:04.717Z,23.20
2019-04-28T21:33:34.467Z,22.60
2019-04-28T21:36:04.229Z,22.30
2019-04-28T21:38:33.950Z,22.80
2019-04-28T21:41:03.621Z,22.57
2019-04-28T21:43:51.653Z,22.77
2019-04-28T21:46:51.734Z,23.47
2019-04-28T21:49:26.664Z,24.03
2019-04-28T21:51:56.364Z,23.30
2019-04-28T21:54:26.111Z,26.63
2019-04-28T21:56:55.808Z,28.60
2019-04-28T21:59:25.493Z,25.03
2019-04-28T22:01:55.658Z,23.77
2019-04-28T22:04:25.349Z,23.43
2019-04-28T22:06:55.039Z,23.97
2019-04-28T22:09:25.137Z,24.80
2019-04-28T22:11:54.787Z,24.13
2019-04-28T22:14:24.505Z,29.90
2019-04-28T22:16:54.245Z,27.33
2019-04-28T22:19:23.995Z,27.23
2019-04-28T22:21:53.755Z,24.43
2019-04-28T22:24:32.018Z,24.13
2019-04-28T22:27:01.701Z,24.70
2019-04-28T22:29:31.403Z,26.40
2019-04-28T22:32:01.121Z,25.17
2019-04-28T22:34:30.963Z,25.33
2019-04-28T22:37:00.671Z,26.10
2019-04-28T22:39:30.348Z,24.90
2019-04-28T22:42:00.076Z,26.13
2019-04-28T22:44:29.766Z,24.90
2019-04-28T22:46:59.482Z,26.30
2019-04-28T22:49:29.189Z,25.37
2019-04-28T22:51:58.855Z,26.00
2019-04-28T22:54:40.902Z,27.27
2019-04-28T22:57:28.249Z,25.00
2019-04-28T22:59:58.695Z,26.53
2019-04-28T23:02:28.865Z,26.80
2019-04-28T23:05:01.600Z,28.23
2019-04-28T23:07:31.337Z,26.90
2019-04-28T23:10:01.001Z,27.33
2019-04-28T23:12:30.696Z,27.67
2019-04-28T23:15:00.474Z,26.37
2019-04-28T23:17:30.212Z,27.43
2019-04-28T23:19:59.914Z,25.63
2019-04-28T23:22:46.718Z,27.47
2019-04-28T23:25:09.968Z,25.73
2019-04-28T23:27:39.659Z,26.43
2019-04-28T23:30:10.867Z,26.17
2019-04-28T23:32:40.582Z,26.70
2019-04-28T23:35:10.399Z,27.20
2019-04-28T23:37:40.102Z,25.63
2019-04-28T23:40:09.927Z,26.53
2019-04-28T23:42:47.687Z,26.40
2019-04-28T23:45:17.397Z,25.60
2019-04-28T23:47:47.087Z,27.87
2019-04-28T23:50:19.192Z,26.70
2019-04-28T23:53:00.059Z,27.57
2019-04-28T23:55:29.710Z,25.57
2019-04-28T23:58:01.749Z,26.73
